Time;durP1;ratioP1;P1;durP2;ratioP2;P2;SDS_P1;SDS_P2;PMS_P1;PMS_P2;Temp;Humidity;BMP_temperature;BMP_pressure;BME280_temperature;BME280_humidity;BME280_pressure;Samples;Min_cycle;Max_cycle;Signal;HPM_P1;HPM_P2
2022/08/28 00:02:37;;;;;;;33.63;17.33;;;14.60;99.90;;;;;;8287512;28;20022;-82
2022/08/28 00:06:37;;;;;;;34.22;17.48;;;14.80;99.90;;;;;;8287232;28;20029;-82
2022/08/28 00:10:39;;;;;;;39.92;19.40;;;15.00;99.90;;;;;;8285681;28;20495;-82
2022/08/28 00:14:40;;;;;;;41.35;20.38;;;15.20;99.90;;;;;;8280348;28;20474;-82
2022/08/28 00:18:40;;;;;;;42.97;20.95;;;15.50;99.90;;;;;;8304739;28;20034;-82
2022/08/28 00:22:41;;;;;;;29.25;16.88;;;15.80;99.90;;;;;;8280152;28;20065;-83
2022/08/28 00:31:03;;;;;;;25.88;16.95;;;15.70;99.90;;;;;;8297096;28;20064;-83
2022/08/28 00:35:05;;;;;;;26.55;14.60;;;15.70;99.90;;;;;;8296482;28;20068;-83
2022/08/28 00:39:07;;;;;;;38.05;13.50;;;15.60;99.90;;;;;;8265617;28;20041;-82
2022/08/28 00:43:08;;;;;;;34.58;13.27;;;15.90;99.90;;;;;;8279554;28;20084;-82
2022/08/28 00:47:09;;;;;;;20.83;12.30;;;16.10;99.90;;;;;;8296420;28;20042;-82
2022/08/28 00:55:31;;;;;;;25.88;13.85;;;15.90;99.90;;;;;;8310370;28;20743;-80
2022/08/28 00:59:32;;;;;;;22.20;13.50;;;15.70;99.90;;;;;;8282413;28;20026;-83
2022/08/28 01:03:32;;;;;;;24.17;12.88;;;15.70;99.90;;;;;;8279037;28;20476;-82
2022/08/28 01:07:33;;;;;;;22.15;14.52;;;15.70;99.90;;;;;;8297400;28;20022;-82
2022/08/28 01:11:34;;;;;;;23.05;14.43;;;15.70;99.90;;;;;;8311212;28;20061;-82
2022/08/28 01:15:36;;;;;;;20.92;13.85;;;15.60;99.90;;;;;;8318663;28;20030;-82
2022/08/28 01:19:41;;;;;;;23.77;14.95;;;15.60;99.90;;;;;;8300524;28;20030;-82
2022/08/28 01:23:50;;;;;;;20.33;14.18;;;15.70;99.90;;;;;;8302612;28;20030;-82
2022/08/28 01:27:51;;;;;;;29.75;16.77;;;15.90;99.90;;;;;;8302200;28;20029;-83
2022/08/28 01:31:51;;;;;;;27.52;15.90;;;15.90;99.90;;;;;;8302009;28;20037;-83
2022/08/28 01:35:52;;;;;;;31.63;17.95;;;16.00;99.90;;;;;;8276747;28;20033;-82
2022/08/28 01:39:53;;;;;;;26.35;15.98;;;16.00;99.90;;;;;;8284881;28;20030;-82
2022/08/28 01:43:54;;;;;;;27.48;16.58;;;16.00;99.90;;;;;;8276655;28;20022;-82
2022/08/28 01:47:55;;;;;;;30.00;17.33;;;15.90;99.90;;;;;;8284532;28;20113;-82
2022/08/28 01:51:56;;;;;;;27.25;15.82;;;15.90;99.90;;;;;;8285547;28;20033;-82
2022/08/28 01:55:58;;;;;;;22.17;14.00;;;16.10;99.90;;;;;;8300205;28;20029;-82
2022/08/28 01:59:58;;;;;;;22.42;13.20;;;16.10;99.90;;;;;;8300878;28;20030;-82
2022/08/28 02:04:03;;;;;;;19.60;12.48;;;16.20;99.90;;;;;;8309211;28;20028;-82
2022/08/28 02:08:05;;;;;;;25.92;15.52;;;16.30;99.90;;;;;;8306774;28;20029;-82
2022/08/28 02:12:06;;;;;;;29.25;16.05;;;16.10;99.90;;;;;;8296331;28;20540;-83
2022/08/28 02:16:08;;;;;;;21.77;15.43;;;16.10;99.90;;;;;;8295863;28;20026;-82
2022/08/28 02:20:09;;;;;;;25.50;15.20;;;16.20;99.90;;;;;;8308092;28;20033;-82
2022/08/28 02:24:10;;;;;;;20.58;15.18;;;16.40;99.90;;;;;;8299968;28;20029;-82
2022/08/28 02:28:11;;;;;;;20.73;14.05;;;16.70;99.90;;;;;;8282645;28;20037;-82
2022/08/28 02:32:11;;;;;;;24.95;15.82;;;16.60;99.90;;;;;;8299968;28;20029;-82
2022/08/28 02:36:14;;;;;;;23.67;16.50;;;16.40;99.90;;;;;;8273836;28;20037;-82
2022/08/28 02:40:17;;;;;;;27.05;16.83;;;16.40;99.90;;;;;;8282052;28;20067;-83
2022/08/28 02:44:18;;;;;;;29.20;18.58;;;16.40;99.90;;;;;;8300188;28;20022;-83
2022/08/28 02:48:18;;;;;;;27.10;16.75;;;16.50;99.90;;;;;;8300045;28;20403;-82
2022/08/28 02:52:20;;;;;;;27.02;18.45;;;16.50;99.90;;;;;;8273477;28;20018;-82
2022/08/28 02:56:21;;;;;;;29.17;18.35;;;16.60;99.90;;;;;;8293279;28;20087;-82
2022/08/28 03:00:24;;;;;;;24.27;16.48;;;16.60;99.90;;;;;;8301254;28;20026;-82
2022/08/28 03:04:24;;;;;;;23.92;14.85;;;16.80;99.90;;;;;;8303410;28;20018;-82
2022/08/28 03:08:26;;;;;;;24.00;16.75;;;17.20;99.90;;;;;;8307815;28;20521;-81
2022/08/28 03:12:26;;;;;;;33.78;17.45;;;17.00;99.90;;;;;;8284370;28;20032;-81
2022/08/28 03:16:27;;;;;;;36.42;19.50;;;17.20;99.90;;;;;;8328922;28;20061;-81
2022/08/28 03:20:27;;;;;;;30.27;20.17;;;17.30;99.90;;;;;;8300137;28;20380;-83
2022/08/28 03:24:28;;;;;;;26.63;17.15;;;17.30;99.90;;;;;;8296703;28;20053;-83
2022/08/28 03:28:32;;;;;;;25.42;17.13;;;17.30;99.90;;;;;;8264188;28;20032;-81
2022/08/28 03:32:33;;;;;;;30.70;17.08;;;17.20;99.90;;;;;;8279499;28;20021;-82
2022/08/28 03:36:34;;;;;;;25.50;17.38;;;17.00;99.90;;;;;;8263187;28;20033;-83
2022/08/28 03:40:39;;;;;;;36.28;17.67;;;16.80;99.90;;;;;;8297118;28;20498;-82
2022/08/28 03:44:39;;;;;;;31.15;17.17;;;16.80;99.90;;;;;;8279149;28;20026;-82
2022/08/28 03:48:41;;;;;;;34.78;18.02;;;16.80;99.90;;;;;;8271372;28;20576;-82
2022/08/28 03:52:42;;;;;;;36.67;18.75;;;16.60;99.90;;;;;;8286521;28;20464;-81
2022/08/28 03:56:42;;;;;;;33.80;18.70;;;16.50;99.90;;;;;;8296930;28;20029;-82
2022/08/28 04:00:44;;;;;;;29.25;17.75;;;16.50;99.90;;;;;;8270726;28;20369;-82
2022/08/28 04:04:46;;;;;;;29.38;17.25;;;16.50;99.90;;;;;;8275155;28;20052;-82
2022/08/28 04:08:47;;;;;;;29.50;17.55;;;16.50;99.90;;;;;;8292977;28;20025;-82
2022/08/28 04:12:47;;;;;;;32.90;17.55;;;16.50;99.90;;;;;;8275781;28;20026;-83
2022/08/28 04:16:48;;;;;;;29.85;18.33;;;16.40;99.90;;;;;;8292602;28;20089;-82
2022/08/28 04:21:15;;;;;;;28.00;16.23;;;16.50;99.90;;;;;;8274781;28;20492;-83
2022/08/28 04:25:16;;;;;;;26.58;17.13;;;16.90;99.90;;;;;;8272015;28;20499;-82
2022/08/28 04:29:17;;;;;;;32.53;19.52;;;17.20;99.90;;;;;;8267794;28;20029;-82
2022/08/28 04:33:17;;;;;;;40.92;23.15;;;17.30;99.90;;;;;;8293034;28;20045;-82
2022/08/28 04:37:18;;;;;;;40.97;23.90;;;17.40;99.90;;;;;;8272504;28;20038;-82
2022/08/28 04:41:18;;;;;;;41.60;24.52;;;17.40;99.90;;;;;;8269367;28;20107;-82
2022/08/28 04:45:20;;;;;;;39.45;20.73;;;17.10;99.90;;;;;;8281986;28;20058;-82
2022/08/28 04:49:20;;;;;;;41.17;22.50;;;17.00;99.90;;;;;;8282768;28;20057;-82
2022/08/28 04:53:21;;;;;;;36.92;20.92;;;16.80;99.90;;;;;;8299402;28;20029;-82
2022/08/28 04:57:21;;;;;;;40.28;21.38;;;16.80;99.90;;;;;;8280993;28;20072;-82
2022/08/28 05:01:23;;;;;;;40.08;21.00;;;16.60;99.90;;;;;;8295046;28;20622;-83
2022/08/28 05:05:23;;;;;;;35.05;21.13;;;16.50;99.90;;;;;;8280329;28;20037;-82
2022/08/28 05:09:24;;;;;;;30.95;20.45;;;16.90;99.90;;;;;;8298399;28;20105;-83
2022/08/28 05:13:26;;;;;;;33.10;19.70;;;17.20;99.90;;;;;;8298337;28;20503;-82
2022/08/28 05:17:27;;;;;;;31.25;19.33;;;17.40;99.90;;;;;;8277667;28;20076;-82
2022/08/28 05:21:28;;;;;;;29.23;19.25;;;17.60;99.90;;;;;;8273941;28;20026;-82
2022/08/28 05:25:29;;;;;;;41.28;20.80;;;17.20;99.90;;;;;;8279846;28;20036;-82
2022/08/28 05:29:29;;;;;;;36.95;21.58;;;16.90;99.90;;;;;;8274554;28;20025;-81
2022/08/28 05:33:30;;;;;;;35.28;20.77;;;16.80;99.90;;;;;;8277249;28;20174;-82
2022/08/28 05:37:30;;;;;;;30.27;20.38;;;16.90;99.90;;;;;;8273706;28;20049;-81
2022/08/28 05:41:31;;;;;;;34.05;21.02;;;17.00;99.90;;;;;;8273690;28;20056;-82
2022/08/28 05:45:32;;;;;;;38.67;22.50;;;17.00;99.90;;;;;;8275887;28;20451;-82
2022/08/28 05:49:33;;;;;;;38.13;22.70;;;17.00;99.90;;;;;;8274020;28;20057;-83
2022/08/28 05:53:40;;;;;;;38.00;23.90;;;17.10;99.90;;;;;;8276323;28;20483;-82
2022/08/28 05:57:40;;;;;;;35.13;22.25;;;17.00;99.90;;;;;;8275661;28;20029;-82
2022/08/28 06:01:45;;;;;;;41.83;23.25;;;17.30;99.90;;;;;;8266690;28;20032;-82
2022/08/28 06:05:45;;;;;;;38.30;23.60;;;17.40;99.90;;;;;;8279838;28;20034;-82
2022/08/28 06:09:46;;;;;;;34.35;22.65;;;17.50;99.90;;;;;;8272251;28;20030;-82
2022/08/28 06:13:47;;;;;;;33.38;21.98;;;17.50;99.90;;;;;;8291479;28;20061;-81
2022/08/28 06:17:47;;;;;;;36.60;21.83;;;17.40;99.90;;;;;;8284615;28;20405;-81
2022/08/28 06:21:51;;;;;;;37.75;21.70;;;17.70;99.90;;;;;;8292582;28;20481;-82
2022/08/28 06:25:51;;;;;;;34.65;21.88;;;17.80;99.90;;;;;;8271760;28;20029;-80
2022/08/28 06:29:52;;;;;;;34.88;22.15;;;18.00;99.90;;;;;;8275221;28;20026;-80
2022/08/28 06:33:54;;;;;;;37.67;22.30;;;17.70;99.90;;;;;;8274573;28;20431;-80
2022/08/28 06:37:55;;;;;;;36.65;21.80;;;17.70;99.90;;;;;;8294184;28;20026;-80
2022/08/28 06:41:56;;;;;;;31.90;21.52;;;17.80;99.90;;;;;;8269589;28;20045;-80
2022/08/28 06:45:57;;;;;;;36.33;21.85;;;17.70;99.90;;;;;;8266650;28;20503;-81
2022/08/28 06:49:57;;;;;;;32.80;21.33;;;18.00;99.90;;;;;;8269908;28;20042;-81
2022/08/28 06:53:58;;;;;;;31.02;20.05;;;18.50;99.90;;;;;;8275014;28;20029;-81
2022/08/28 06:57:59;;;;;;;32.88;20.55;;;18.50;99.90;;;;;;8289486;28;20472;-90
2022/08/28 07:02:01;;;;;;;31.10;20.58;;;18.40;99.90;;;;;;8271617;28;20061;-90
2022/08/28 07:06:03;;;;;;;31.55;20.10;;;18.50;99.90;;;;;;8268889;28;20069;-81
2022/08/28 07:10:05;;;;;;;31.88;18.92;;;18.60;99.90;;;;;;8265508;28;20029;-81
2022/08/28 07:14:06;;;;;;;28.45;17.92;;;18.90;99.90;;;;;;8282894;28;20030;-81
2022/08/28 07:18:06;;;;;;;27.08;17.35;;;18.90;99.90;;;;;;8271182;28;20021;-81
2022/08/28 07:22:07;;;;;;;32.60;19.55;;;18.70;99.90;;;;;;8270702;28;20022;-81
2022/08/28 07:26:11;;;;;;;26.00;17.38;;;18.60;99.90;;;;;;8284593;28;20109;-81
2022/08/28 07:30:12;;;;;;;28.73;18.48;;;18.70;99.90;;;;;;8273608;28;20064;-81
2022/08/28 07:34:14;;;;;;;29.05;18.58;;;18.70;99.90;;;;;;8272864;28;20392;-81
2022/08/28 07:38:15;;;;;;;26.52;16.85;;;18.80;99.90;;;;;;8284851;28;20084;-81
2022/08/28 07:44:48;;;;;;;30.55;18.50;;;18.80;99.90;;;;;;8270060;28;20026;-81
2022/08/28 07:46:38;;;;;;;26.75;17.55;;;18.80;99.90;;;;;;8288843;28;20026;-81
2022/08/28 07:50:38;;;;;;;24.17;16.40;;;18.90;99.90;;;;;;8271987;28;20038;-81
2022/08/28 07:54:39;;;;;;;24.92;17.70;;;19.20;99.90;;;;;;8264775;28;20164;-81
2022/08/28 07:58:39;;;;;;;24.40;15.48;;;19.20;99.90;;;;;;8279452;28;20026;-81
2022/08/28 08:02:42;;;;;;;24.33;16.08;;;19.00;99.90;;;;;;8262822;28;20041;-81
2022/08/28 08:06:44;;;;;;;26.98;16.63;;;18.80;99.90;;;;;;8257886;28;20025;-81
2022/08/28 08:10:44;;;;;;;22.92;15.80;;;18.60;99.90;;;;;;8260526;28;20056;-81
2022/08/28 08:14:47;;;;;;;26.52;17.05;;;18.90;99.90;;;;;;8262268;28;20184;-81
2022/08/28 08:18:49;;;;;;;21.77;15.23;;;19.00;99.90;;;;;;8265560;28;20133;-81
2022/08/28 08:22:49;;;;;;;21.52;15.02;;;19.30;99.90;;;;;;8262709;28;20399;-81
2022/08/28 08:26:52;;;;;;;23.02;15.00;;;19.50;99.90;;;;;;8285217;28;20044;-81
2022/08/28 08:31:06;;;;;;;21.92;14.52;;;19.80;99.90;;;;;;8270616;28;20025;-81
2022/08/28 08:35:07;;;;;;;21.65;14.55;;;20.10;99.90;;;;;;8279833;28;20034;-81
2022/08/28 08:39:09;;;;;;;17.15;12.77;;;21.30;99.90;;;;;;8289486;28;20042;-82
2022/08/28 08:43:09;;;;;;;18.98;13.05;;;21.20;99.90;;;;;;8271205;28;20637;-81
2022/08/28 08:47:35;;;;;;;17.73;13.15;;;21.30;99.90;;;;;;8301598;22;20262;-79
2022/08/28 08:51:42;;;;;;;16.85;12.05;;;21.20;99.90;;;;;;8320088;28;20455;-80
2022/08/28 08:55:54;;;;;;;18.20;11.85;;;20.90;99.90;;;;;;8310639;28;20045;-80
2022/08/28 08:59:54;;;;;;;16.55;12.23;;;20.70;99.90;;;;;;8268654;28;20021;-79
2022/08/28 09:04:04;;;;;;;16.33;12.35;;;20.60;99.90;;;;;;8289417;28;20032;-79
2022/08/28 09:08:11;;;;;;;13.80;10.38;;;20.20;99.90;;;;;;8286049;28;20033;-83
2022/08/28 09:12:17;;;;;;;14.02;10.63;;;20.30;99.90;;;;;;8267630;28;20029;-81
2022/08/28 09:16:35;;;;;;;12.23;8.13;;;20.80;99.90;;;;;;8275366;28;20030;-81
2022/08/28 09:20:36;;;;;;;11.55;8.18;;;20.90;99.90;;;;;;8275015;28;20078;-81
2022/08/28 09:24:38;;;;;;;9.85;7.13;;;20.60;99.90;;;;;;8273939;28;20049;-81
2022/08/28 09:28:41;;;;;;;8.05;6.45;;;20.60;99.90;;;;;;8277285;28;20116;-81
2022/08/28 09:32:55;;;;;;;8.52;6.07;;;20.60;99.90;;;;;;8274824;28;20391;-81
2022/08/28 09:36:58;;;;;;;9.40;6.25;;;20.70;99.90;;;;;;8280675;28;20515;-79
2022/08/28 09:45:28;;;;;;;7.13;5.60;;;21.00;99.90;;;;;;8299571;28;20033;-81
2022/08/28 09:49:29;;;;;;;7.90;5.22;;;21.10;99.90;;;;;;8299035;28;20038;-80
2022/08/28 09:53:33;;;;;;;6.20;5.00;;;21.80;99.90;;;;;;8299089;28;20116;-82
2022/08/28 09:57:33;;;;;;;4.55;3.75;;;22.20;99.90;;;;;;8280495;28;20036;-81
2022/08/28 10:01:47;;;;;;;6.20;4.03;;;22.60;99.90;;;;;;8283866;28;20026;-81
2022/08/28 10:05:54;;;;;;;5.07;3.67;;;22.70;99.90;;;;;;8298214;28;20096;-81
2022/08/28 10:10:15;;;;;;;5.53;3.33;;;22.30;99.90;;;;;;8296030;28;20022;-82
2022/08/28 10:14:47;;;;;;;4.18;3.42;;;22.00;99.90;;;;;;8280314;28;20510;-81
2022/08/28 10:19:04;;;;;;;;;;;21.40;99.90;;;;;;8298059;28;20484;-81
2022/08/28 10:23:30;;;;;;;3.63;2.78;;;21.10;99.90;;;;;;8297703;28;20367;-81
2022/08/28 10:28:10;;;;;;;3.22;2.78;;;21.60;99.90;;;;;;8279989;28;20499;-81
2022/08/28 10:32:52;;;;;;;3.45;2.92;;;21.60;99.90;;;;;;8270623;28;20511;-81
2022/08/28 10:37:30;;;;;;;4.32;2.60;;;22.40;99.90;;;;;;8248633;28;20048;-80
2022/08/28 10:41:44;;;;;;;3.38;2.53;;;22.20;99.90;;;;;;8298227;28;20030;-82
2022/08/28 10:45:46;;;;;;;2.83;2.47;;;21.90;99.90;;;;;;8298107;28;20030;-82
2022/08/28 10:49:51;;;;;;;3.10;2.80;;;22.00;99.90;;;;;;8273347;28;20044;-81
2022/08/28 10:53:56;;;;;;;2.72;2.00;;;21.60;99.90;;;;;;8274888;28;20250;-81
2022/08/28 10:58:02;;;;;;;3.40;2.80;;;22.40;99.90;;;;;;8278937;28;20083;-82
2022/08/28 11:02:05;;;;;;;3.25;2.70;;;23.50;99.90;;;;;;8275264;28;20048;-82
2022/08/28 11:06:32;;;;;;;4.25;3.45;;;22.60;99.90;;;;;;8293107;28;20032;-81
2022/08/28 11:10:35;;;;;;;5.10;3.22;;;22.10;99.90;;;;;;8295418;28;20030;-82
2022/08/28 11:14:39;;;;;;;4.20;3.47;;;23.60;99.90;;;;;;8293305;28;20026;-82
2022/08/28 11:19:09;;;;;;;3.50;3.20;;;23.70;99.90;;;;;;8293236;28;20172;-82
2022/08/28 11:23:19;;;;;;;5.00;3.60;;;24.90;99.90;;;;;;8272038;28;20030;-82
2022/08/28 11:27:29;;;;;;;5.20;3.75;;;24.80;99.90;;;;;;8294622;28;20036;-81
2022/08/28 11:31:34;;;;;;;4.38;3.47;;;23.50;99.90;;;;;;8280261;28;20053;-82
2022/08/28 11:35:47;;;;;;;4.20;3.53;;;23.70;99.90;;;;;;8277554;28;20057;-81
2022/08/28 11:39:47;;;;;;;5.00;4.05;;;22.60;99.90;;;;;;8295576;28;20515;-82
2022/08/28 11:44:07;;;;;;;5.05;4.50;;;21.70;99.90;;;;;;8276792;28;20113;-81
2022/08/28 11:48:42;;;;;;;4.75;3.78;;;21.50;99.90;;;;;;8297184;28;20032;-81
2022/08/28 11:53:06;;;;;;;4.13;3.40;;;24.80;99.90;;;;;;8290303;28;20492;-82
2022/08/28 11:57:40;;;;;;;3.47;2.78;;;27.80;99.90;;;;;;8284933;28;20400;-82
2022/08/28 12:01:41;;;;;;;3.42;2.95;;;29.70;99.90;;;;;;8297220;28;20029;-81
2022/08/28 12:05:51;;;;;;;4.30;3.00;;;29.00;99.90;;;;;;8285268;28;20033;-82
2022/08/28 12:09:51;;;;;;;3.53;3.13;;;29.50;99.90;;;;;;8270869;28;20084;-81
2022/08/28 12:13:52;;;;;;;3.80;3.10;;;30.40;99.90;;;;;;8288334;28;20559;-82
2022/08/28 12:18:00;;;;;;;4.18;3.22;;;30.80;99.90;;;;;;8277207;28;20041;-81
2022/08/28 12:22:05;;;;;;;5.22;3.47;;;28.50;99.90;;;;;;8292698;28;20491;-81
2022/08/28 12:26:25;;;;;;;5.05;3.22;;;27.70;99.90;;;;;;8267281;28;20035;-82
2022/08/28 12:30:37;;;;;;;3.53;3.22;;;28.80;99.90;;;;;;8289555;28;20033;-81
2022/08/28 12:35:08;;;;;;;4.03;3.50;;;30.50;99.90;;;;;;8274687;28;20091;-81
2022/08/28 12:39:17;;;;;;;3.60;2.90;;;31.50;99.90;;;;;;8270152;28;20030;-81
2022/08/28 12:43:26;;;;;;;5.70;3.65;;;32.50;99.90;;;;;;8292564;28;20018;-82
2022/08/28 12:47:27;;;;;;;4.53;3.40;;;33.20;95.70;;;;;;8307088;28;20046;-82
2022/08/28 12:51:31;;;;;;;3.90;3.50;;;31.60;98.80;;;;;;8276975;28;20471;-81
2022/08/28 12:55:32;;;;;;;6.82;3.85;;;31.00;96.60;;;;;;8276155;28;20377;-81
2022/08/28 12:59:45;;;;;;;3.90;3.50;;;31.60;95.10;;;;;;8293371;28;20026;-81
2022/08/28 13:03:47;;;;;;;4.40;3.47;;;30.30;95.70;;;;;;8278689;28;20022;-81
2022/08/28 13:07:51;;;;;;;4.15;3.03;;;29.40;99.90;;;;;;8281062;28;20037;-81
2022/08/28 13:11:52;;;;;;;4.53;3.25;;;30.40;95.20;;;;;;8289711;28;20041;-80
2022/08/28 13:16:00;;;;;;;4.05;3.45;;;31.50;95.40;;;;;;8300518;28;20026;-81
2022/08/28 13:20:04;;;;;;;4.57;3.28;;;32.70;92.50;;;;;;8273454;28;20302;-82
2022/08/28 13:24:22;;;;;;;4.25;3.78;;;33.00;94.20;;;;;;8286841;28;20018;-81
2022/08/28 13:28:23;;;;;;;4.32;3.63;;;33.20;92.10;;;;;;8306178;28;20124;-82
2022/08/28 13:32:24;;;;;;;3.83;3.45;;;33.50;91.60;;;;;;8281887;28;20503;-82
2022/08/28 13:36:25;;;;;;;6.90;4.22;;;32.50;90.60;;;;;;8267002;28;20049;-81
2022/08/28 13:40:32;;;;;;;5.10;4.60;;;28.80;95.60;;;;;;8277024;28;20022;-80
2022/08/28 13:44:47;;;;;;;4.10;3.70;;;26.90;99.90;;;;;;8275575;28;20087;-81
2022/08/28 13:48:47;;;;;;;6.30;3.70;;;29.90;99.40;;;;;;8273552;28;20058;-81
2022/08/28 13:52:48;;;;;;;4.45;3.70;;;31.70;93.30;;;;;;8297108;28;20026;-81
2022/08/28 13:56:49;;;;;;;3.95;3.60;;;31.90;93.90;;;;;;8307990;28;20026;-82
2022/08/28 14:00:50;;;;;;;3.63;3.33;;;32.50;92.90;;;;;;8283812;28;20072;-82
2022/08/28 14:04:50;;;;;;;3.97;3.58;;;33.10;92.50;;;;;;8284599;28;20034;-82
2022/08/28 14:08:51;;;;;;;4.25;3.45;;;34.90;85.20;;;;;;8301687;28;20064;-82
2022/08/28 14:12:51;;;;;;;5.90;3.97;;;34.40;81.60;;;;;;8277178;28;20021;-80
2022/08/28 14:16:53;;;;;;;4.40;4.00;;;31.70;90.20;;;;;;8301768;28;20030;-81
2022/08/28 14:20:53;;;;;;;5.60;3.90;;;29.20;99.00;;;;;;8284417;28;20030;-80
2022/08/28 14:24:54;;;;;;;5.10;3.88;;;27.20;99.90;;;;;;8294640;28;20034;-80
2022/08/28 14:28:58;;;;;;;5.03;4.10;;;26.40;99.90;;;;;;8298696;28;20099;-80
2022/08/28 14:32:58;;;;;;;7.22;4.40;;;25.20;99.90;;;;;;8295585;28;20399;-80
2022/08/28 14:37:00;;;;;;;7.65;4.85;;;24.20;99.90;;;;;;8282867;28;20033;-79
2022/08/28 14:41:01;;;;;;;5.50;4.07;;;23.50;99.90;;;;;;8276872;28;20037;-80
2022/08/28 14:45:02;;;;;;;4.43;3.80;;;26.50;99.90;;;;;;8278291;28;20104;-80
2022/08/28 14:49:06;;;;;;;4.00;3.40;;;30.50;99.90;;;;;;8299621;28;20029;-80
2022/08/28 14:53:07;;;;;;;5.40;3.28;;;31.00;93.70;;;;;;8288087;28;21033;-80
2022/08/28 14:57:07;;;;;;;4.18;3.78;;;30.10;92.80;;;;;;8277437;28;20030;-80
2022/08/28 15:01:08;;;;;;;5.15;4.05;;;28.80;97.00;;;;;;8295235;28;20030;-81
2022/08/28 15:05:10;;;;;;;4.38;3.92;;;27.50;99.90;;;;;;8275690;28;20068;-80
2022/08/28 15:09:12;;;;;;;5.85;4.25;;;26.40;99.90;;;;;;8276583;28;20057;-79
2022/08/28 15:13:13;;;;;;;6.15;4.30;;;25.70;99.90;;;;;;8275563;28;20396;-80
2022/08/28 15:17:13;;;;;;;5.38;4.22;;;24.80;99.90;;;;;;8274122;28;20022;-80
2022/08/28 15:21:19;;;;;;;6.75;4.97;;;23.40;99.90;;;;;;8274355;28;20392;-80
2022/08/28 15:25:20;;;;;;;5.35;4.13;;;23.20;99.90;;;;;;8271978;28;20541;-80
2022/08/28 15:29:21;;;;;;;5.97;3.90;;;26.80;99.90;;;;;;8292451;28;20030;-80
2022/08/28 15:33:21;;;;;;;5.22;4.18;;;28.60;99.90;;;;;;8274160;28;20032;-80
2022/08/28 15:37:22;;;;;;;5.88;4.20;;;26.90;99.90;;;;;;8291560;28;20080;-80
2022/08/28 15:41:22;;;;;;;4.25;3.67;;;28.30;99.90;;;;;;8275505;28;20116;-80
2022/08/28 15:45:25;;;;;;;4.85;3.67;;;30.70;99.40;;;;;;8275097;28;20048;-80
2022/08/28 15:49:28;;;;;;;3.70;3.40;;;30.90;94.10;;;;;;8292279;28;20029;-80
2022/08/28 15:53:29;;;;;;;6.88;4.35;;;28.60;98.10;;;;;;8292311;28;20038;-80
2022/08/28 15:57:29;;;;;;;5.80;4.20;;;25.80;99.90;;;;;;8270971;28;20040;-79
2022/08/28 16:01:30;;;;;;;5.35;4.28;;;23.90;99.90;;;;;;8274199;28;20044;-80
2022/08/28 16:05:37;;;;;;;8.27;5.20;;;23.10;99.90;;;;;;8274955;28;20044;-79
2022/08/28 16:09:37;;;;;;;6.28;4.32;;;23.00;99.90;;;;;;8268155;28;20034;-80
2022/08/28 16:13:38;;;;;;;5.97;4.82;;;23.20;99.90;;;;;;8292261;28;20101;-79
2022/08/28 16:17:38;;;;;;;6.75;5.13;;;23.00;99.90;;;;;;8272646;28;20042;-80
2022/08/28 16:21:39;;;;;;;7.20;4.80;;;22.80;99.90;;;;;;8293244;28;20093;-79
2022/08/28 16:25:40;;;;;;;5.30;4.78;;;22.80;99.90;;;;;;8294204;28;20754;-79
2022/08/28 16:29:41;;;;;;;6.30;4.95;;;22.70;99.90;;;;;;8279120;28;20052;-79
2022/08/28 16:33:42;;;;;;;4.40;4.00;;;22.70;99.90;;;;;;8279808;28;20041;-78
2022/08/28 16:37:42;;;;;;;5.55;4.82;;;22.80;99.90;;;;;;8276331;28;20037;-80
2022/08/28 16:41:48;;;;;;;4.82;4.32;;;22.70;99.90;;;;;;8269834;28;20022;-80
2022/08/28 16:45:49;;;;;;;4.90;4.25;;;22.50;99.90;;;;;;8265459;28;20045;-80
2022/08/28 16:49:50;;;;;;;7.35;4.57;;;22.40;99.90;;;;;;8281462;28;20116;-80
2022/08/28 16:53:51;;;;;;;6.00;4.80;;;22.20;99.90;;;;;;8269517;28;20112;-80
2022/08/28 16:57:53;;;;;;;7.07;4.65;;;21.70;99.90;;;;;;8304164;28;20018;-80
2022/08/28 17:01:53;;;;;;;9.30;5.28;;;21.50;99.90;;;;;;8287571;28;20083;-79
2022/08/28 17:05:55;;;;;;;7.95;4.95;;;21.30;99.90;;;;;;8279658;28;20029;-79
2022/08/28 17:09:56;;;;;;;7.95;5.20;;;21.10;99.90;;;;;;8284119;28;20664;-79
2022/08/28 17:13:56;;;;;;;7.65;5.40;;;21.00;99.90;;;;;;8267818;28;20033;-80
2022/08/28 17:17:57;;;;;;;7.57;5.00;;;20.80;99.90;;;;;;8273697;28;20029;-80
2022/08/28 17:26:17;;;;;;;6.32;5.45;;;20.50;99.90;;;;;;8286069;28;20048;-80
2022/08/28 17:30:18;;;;;;;8.45;5.63;;;20.30;99.90;;;;;;8265034;28;20026;-79
2022/08/28 17:34:20;;;;;;;6.55;5.75;;;20.20;99.90;;;;;;8272361;28;20492;-81
2022/08/28 17:38:20;;;;;;;10.95;5.78;;;19.90;99.90;;;;;;8274468;28;20137;-81
2022/08/28 17:42:21;;;;;;;9.05;5.97;;;19.40;99.90;;;;;;8287853;28;20022;-81
2022/08/28 17:46:22;;;;;;;6.90;5.60;;;19.20;99.90;;;;;;8286498;28;20605;-81
2022/08/28 17:50:22;;;;;;;8.50;6.45;;;18.90;99.90;;;;;;8296231;28;20034;-80
2022/08/28 17:54:23;;;;;;;7.40;5.72;;;18.70;99.90;;;;;;8282016;28;20057;-80
2022/08/28 17:58:24;;;;;;;9.82;7.03;;;18.60;99.90;;;;;;8305402;28;20098;-81
2022/08/28 18:02:26;;;;;;;7.60;6.35;;;18.30;99.90;;;;;;8290061;28;20026;-81
2022/08/28 18:06:27;;;;;;;9.18;7.07;;;18.30;99.90;;;;;;8290819;28;20129;-81
2022/08/28 18:10:32;;;;;;;8.32;6.18;;;18.40;99.90;;;;;;8286450;28;20034;-80
2022/08/28 18:14:32;;;;;;;8.10;6.82;;;18.30;99.90;;;;;;8299103;28;20028;-81
2022/08/28 18:18:33;;;;;;;12.43;7.10;;;18.20;99.90;;;;;;8302517;28;20018;-81
2022/08/28 18:22:34;;;;;;;9.55;7.25;;;17.90;99.90;;;;;;8297782;28;20391;-80
2022/08/28 18:26:35;;;;;;;10.10;6.90;;;17.80;99.90;;;;;;8294271;28;20112;-81
2022/08/28 18:30:36;;;;;;;11.65;7.80;;;17.50;99.90;;;;;;8295840;28;20729;-80
2022/08/28 18:34:36;;;;;;;9.98;7.80;;;17.30;99.90;;;;;;8286987;28;20406;-81
2022/08/28 18:38:37;;;;;;;9.45;7.60;;;17.20;99.90;;;;;;8281656;28;20030;-80
2022/08/28 18:42:38;;;;;;;9.40;7.55;;;17.20;99.90;;;;;;8278587;28;20440;-82
2022/08/28 18:46:39;;;;;;;8.32;6.85;;;17.20;99.90;;;;;;8296624;28;20077;-81
2022/08/28 18:50:40;;;;;;;9.90;7.53;;;17.10;99.90;;;;;;8308754;28;20053;-81
2022/08/28 18:54:41;;;;;;;9.07;7.15;;;17.00;99.90;;;;;;8278983;28;20034;-80
2022/08/28 18:58:42;;;;;;;8.48;6.85;;;17.20;99.90;;;;;;8295911;28;20022;-80
2022/08/28 19:02:43;;;;;;;12.65;8.85;;;16.90;99.90;;;;;;8297246;28;20049;-80
2022/08/28 19:06:43;;;;;;;15.75;8.40;;;16.60;99.90;;;;;;8279393;28;20113;-80
2022/08/28 19:10:44;;;;;;;10.57;8.27;;;16.50;99.90;;;;;;8282385;28;20391;-80
2022/08/28 19:14:45;;;;;;;10.38;8.27;;;16.50;99.90;;;;;;8283855;28;20034;-80
2022/08/28 19:18:46;;;;;;;9.15;7.80;;;16.40;99.90;;;;;;8282131;28;20045;-80
2022/08/28 19:22:47;;;;;;;12.43;8.23;;;16.30;99.90;;;;;;8281139;28;20026;-80
2022/08/28 19:26:48;;;;;;;13.02;8.63;;;16.10;99.90;;;;;;8276454;28;20030;-81
2022/08/28 19:30:49;;;;;;;12.48;8.02;;;16.00;99.90;;;;;;8272541;28;20506;-80
2022/08/28 19:34:49;;;;;;;11.63;9.02;;;15.90;99.90;;;;;;8274556;28;20053;-80
2022/08/28 19:38:50;;;;;;;14.93;8.35;;;15.80;99.90;;;;;;8302313;28;20021;-80
2022/08/28 19:42:51;;;;;;;13.60;9.77;;;15.90;99.90;;;;;;8292893;28;20056;-78
2022/08/28 19:46:52;;;;;;;13.02;9.75;;;15.80;99.90;;;;;;8289963;28;20083;-77
2022/08/28 19:51:04;;;;;;;16.00;10.90;;;15.60;99.90;;;;;;8297182;28;20036;-80
2022/08/28 19:55:05;;;;;;;16.35;10.35;;;15.60;99.90;;;;;;8303019;28;20069;-80
2022/08/28 19:59:07;;;;;;;14.05;10.73;;;15.50;99.90;;;;;;8290087;28;20395;-80
2022/08/28 20:03:08;;;;;;;14.20;10.05;;;15.50;99.90;;;;;;8306778;28;20022;-81
2022/08/28 20:07:08;;;;;;;10.70;9.07;;;15.50;99.90;;;;;;8270272;28;20041;-80
2022/08/28 20:11:15;;;;;;;14.40;9.35;;;15.40;99.90;;;;;;8291801;28;20037;-80
2022/08/28 20:15:18;;;;;;;18.73;11.05;;;15.50;99.90;;;;;;8275006;28;20450;-80
2022/08/28 20:19:19;;;;;;;14.80;10.38;;;15.30;99.90;;;;;;8278515;28;20742;-80
2022/08/28 20:23:19;;;;;;;14.23;10.00;;;15.10;99.90;;;;;;8285036;28;20033;-79
2022/08/28 20:27:20;;;;;;;16.58;10.80;;;15.00;99.90;;;;;;8282403;28;20038;-80
2022/08/28 20:31:20;;;;;;;18.00;10.65;;;15.00;99.90;;;;;;8284211;28;20499;-80
2022/08/28 20:35:22;;;;;;;13.93;10.13;;;15.00;99.90;;;;;;8284174;28;20068;-80
2022/08/28 20:39:23;;;;;;;12.95;9.95;;;15.10;99.90;;;;;;8285107;28;20392;-80
2022/08/28 20:43:24;;;;;;;13.82;10.07;;;15.00;99.90;;;;;;8292520;28;20109;-80
2022/08/28 20:47:24;;;;;;;14.02;10.52;;;15.00;99.90;;;;;;8274288;28;20045;-79
2022/08/28 20:55:44;;;;;;;14.18;8.68;;;14.70;99.90;;;;;;8292637;28;20518;-81
2022/08/28 20:59:46;;;;;;;13.07;9.50;;;14.70;99.90;;;;;;8275779;28;20018;-80
2022/08/28 21:03:47;;;;;;;15.07;9.82;;;14.60;99.90;;;;;;8274596;28;20022;-80
2022/08/28 21:07:47;;;;;;;12.73;9.65;;;14.50;99.90;;;;;;8284818;28;20049;-79
2022/08/28 21:11:48;;;;;;;15.10;10.75;;;14.40;99.90;;;;;;8268351;28;20460;-80